Time,TemperatureF,DewpointF,PressureIn,WindDirection,WindDirectionDegrees,WindSpeedMPH,WindSpeedGustMPH,Humidity,HourlyPrecipIn,Conditions,Clouds,dailyrainin,SoftwareType,DateUTC
2013-07-14 00:10:00,52.2,46.0,30.06,East,79,0.0,0.0,78,0.00,,,0.00,weatherlink.com 1.10,2013-07-14 07:10:00,
2013-07-14 00:25:00,51.6,45.0,30.06,East,79,0.0,0.0,79,0.00,,,0.00,weatherlink.com 1.10,2013-07-14 07:25:00,
2013-07-14 00:40:00,51.0,45.0,30.06,East,79,0.0,0.0,80,0.00,,,0.00,weatherlink.com 1.10,2013-07-14 07:40:00,
2013-07-14 00:55:00,50.3,45.0,30.06,East,79,0.0,0.0,81,0.00,,,0.00,weatherlink.com 1.10,2013-07-14 07:55:00,
2013-07-14 01:10:00,49.7,44.0,30.07,East,79,0.0,0.0,82,0.00,,,0.00,weatherlink.com 1.10,2013-07-14 08:10:00,
2013-07-14 01:25:00,49.2,44.0,30.07,East,79,0.0,0.0,82,0.00,,,0.00,weatherlink.com 1.10,2013-07-14 08:25:00,
2013-07-14 01:40:00,48.6,44.0,30.07,East,79,0.0,0.0,83,0.00,,,0.00,weatherlink.com 1.10,2013-07-14 08:40:00,
2013-07-14 01:55:00,48.1,44.0,30.07,East,79,0.0,0.0,84,0.00,,,0.00,weatherlink.com 1.10,2013-07-14 08:55:00,
2013-07-14 02:10:00,47.5,43.0,30.07,East,79,0.0,0.0,85,0.00,,,0.00,weatherlink.com 1.10,2013-07-14 09:10:00,
2013-07-14 02:25:00,46.9,43.0,30.08,East,79,0.0,0.0,86,0.00,,,0.00,weatherlink.com 1.10,2013-07-14 09:25:00,
2013-07-14 02:40:00,46.4,43.0,30.08,East,79,0.0,0.0,86,0.00,,,0.00,weatherlink.com 1.10,2013-07-14 09:40:00,
2013-07-14 02:55:00,45.9,42.0,30.08,East,79,0.0,0.0,87,0.00,,,0.00,weatherlink.com 1.10,2013-07-14 09:55:00,
2013-07-14 03:10:00,45.4,42.0,30.08,East,79,0.0,0.0,88,0.00,,,0.00,weatherlink.com 1.10,2013-07-14 10:10:00,
2013-07-14 03:25:00,44.9,42.0,30.08,East,79,0.0,0.0,88,0.00,,,0.00,weatherlink.com 1.10,2013-07-14 10:25:00,
2013-07-14 03:40:00,44.4,41.0,30.08,East,79,0.0,0.0,89,0.00,,,0.00,weatherlink.com 1.10,2013-07-14 10:40:00,
2013-07-14 03:55:00,44.0,41.0,30.07,East,79,0.0,0.0,90,0.00,,,0.00,weatherlink.com 1.10,2013-07-14 10:55:00,
2013-07-14 04:10:00,43.6,41.0,30.07,East,79,0.0,0.0,90,0.00,,,0.00,weatherlink.com 1.10,2013-07-14 11:10:00,
2013-07-14 04:25:00,43.2,41.0,30.08,East,79,0.0,0.0,91,0.00,,,0.00,weatherlink.com 1.10,2013-07-14 11:25:00,
2013-07-14 04:40:00,42.9,41.0,30.08,East,79,0.0,0.0,91,0.00,,,0.00,weatherlink.com 1.10,2013-07-14 11:40:00,
2013-07-14 04:55:00,42.5,40.0,30.08,East,79,0.0,0.0,91,0.00,,,0.00,weatherlink.com 1.10,2013-07-14 11:55:00,
2013-07-14 05:10:00,42.2,40.0,30.08,East,79,0.0,0.0,91,0.00,,,0.00,weatherlink.com 1.10,2013-07-14 12:10:00,
2013-07-14 05:25:00,41.9,40.0,30.08,East,79,0.0,0.0,92,0.00,,,0.00,weatherlink.com 1.10,2013-07-14 12:25:00,
2013-07-14 05:40:00,41.7,40.0,30.08,East,79,0.0,0.0,92,0.00,,,0.00,weatherlink.com 1.10,2013-07-14 12:40:00,
2013-07-14 05:55:00,41.5,40.0,30.08,East,79,0.0,0.0,93,0.00,,,0.00,weatherlink.com 1.10,2013-07-14 12:55:00,
2013-07-14 06:10:00,41.4,40.0,30.07,East,79,0.0,0.0,93,0.00,,,0.00,weatherlink.com 1.10,2013-07-14 13:10:00,
2013-07-14 06:25:00,41.2,39.0,30.07,East,79,0.0,0.0,93,0.00,,,0.00,weatherlink.com 1.10,2013-07-14 13:25:00,
2013-07-14 06:40:00,41.2,39.0,30.07,East,79,0.0,0.0,93,0.00,,,0.00,weatherlink.com 1.10,2013-07-14 13:40:00,
2013-07-14 06:55:00,41.4,40.0,30.08,East,79,0.0,0.0,94,0.00,,,0.00,weatherlink.com 1.10,2013-07-14 13:55:00,
2013-07-14 07:10:00,41.7,40.0,30.08,East,79,0.0,0.0,94,0.00,,,0.00,weatherlink.com 1.10,2013-07-14 14:10:00,
2013-07-14 07:25:00,42.3,41.0,30.07,East,79,0.0,0.0,95,0.00,,,0.00,weatherlink.com 1.10,2013-07-14 14:25:00,
2013-07-14 07:40:00,43.3,42.0,30.07,East,79,0.0,0.0,95,0.00,,,0.00,weatherlink.com 1.10,2013-07-14 14:40:00,
2013-07-14 07:55:00,44.7,44.0,30.07,East,79,0.0,0.0,96,0.00,,,0.00,weatherlink.com 1.10,2013-07-14 14:55:00,
2013-07-14 08:10:00,46.7,46.0,30.06,East,79,0.0,0.0,96,0.00,,,0.00,weatherlink.com 1.10,2013-07-14 15:10:00,
2013-07-14 08:25:00,49.6,46.0,30.06,East,79,0.0,0.0,87,0.00,,,0.00,weatherlink.com 1.10,2013-07-14 15:25:00,
2013-07-14 08:40:00,52.8,46.0,30.06,East,79,0.0,0.0,78,0.00,,,0.00,weatherlink.com 1.10,2013-07-14 15:40:00,
2013-07-14 08:56:00,56.4,44.0,30.05,East,79,0.0,0.0,64,0.00,,,0.00,weatherlink.com 1.10,2013-07-14 15:56:00,
2013-07-14 09:11:00,61.3,46.0,30.05,ENE,76,0.0,1.0,58,0.00,,,0.00,weatherlink.com 1.10,2013-07-14 16:11:00,
2013-07-14 09:26:00,64.2,46.0,30.04,ENE,76,0.0,0.0,52,0.00,,,0.00,weatherlink.com 1.10,2013-07-14 16:26:00,
2013-07-14 09:41:00,66.7,47.0,30.03,North,349,0.0,2.0,50,0.00,,,0.00,weatherlink.com 1.10,2013-07-14 16:41:00,
2013-07-14 09:56:00,68.9,47.0,30.02,North,351,0.0,0.0,46,0.00,,,0.00,weatherlink.com 1.10,2013-07-14 16:56:00,
2013-07-14 10:11:00,70.3,45.0,30.02,NNE,33,0.0,2.0,40,0.00,,,0.00,weatherlink.com 1.10,2013-07-14 17:11:00,
2013-07-14 10:26:00,72.4,45.0,30.01,East,82,0.0,1.0,38,0.00,,,0.00,weatherlink.com 1.10,2013-07-14 17:26:00,
2013-07-14 10:41:00,73.0,45.0,30.00,North,355,0.0,2.0,37,0.00,,,0.00,weatherlink.com 1.10,2013-07-14 17:41:00,
2013-07-14 10:56:00,73.7,46.0,30.00,East,88,0.0,1.0,38,0.00,,,0.00,weatherlink.com 1.10,2013-07-14 17:56:00,
2013-07-14 11:11:00,74.5,40.0,29.99,NNW,339,0.0,2.0,29,0.00,,,0.00,weatherlink.com 1.10,2013-07-14 18:11:00,
2013-07-14 11:26:00,75.6,44.0,29.99,East,84,1.0,2.0,32,0.00,,,0.00,weatherlink.com 1.10,2013-07-14 18:26:00,
2013-07-14 11:41:00,76.9,43.0,29.98,SSE,148,0.0,2.0,30,0.00,,,0.00,weatherlink.com 1.10,2013-07-14 18:41:00,
2013-07-14 11:56:00,78.6,41.0,29.98,WSW,258,0.0,2.0,26,0.00,,,0.00,weatherlink.com 1.10,2013-07-14 18:56:00,
2013-07-14 12:11:00,80.2,42.0,29.97,NNW,336,0.0,3.0,26,0.00,,,0.00,weatherlink.com 1.10,2013-07-14 19:11:00,
2013-07-14 12:26:00,80.8,42.0,29.97,SE,132,0.0,2.0,25,0.00,,,0.00,weatherlink.com 1.10,2013-07-14 19:26:00,
2013-07-14 12:42:00,82.2,44.0,29.96,NNE,24,0.0,2.0,26,0.00,,,0.00,weatherlink.com 1.10,2013-07-14 19:42:00,
2013-07-14 12:57:00,82.9,38.0,29.96,SSE,161,0.0,4.0,20,0.00,,,0.00,weatherlink.com 1.10,2013-07-14 19:57:00,
2013-07-14 13:12:00,83.6,37.0,29.95,East,82,0.0,2.0,19,0.00,,,0.00,weatherlink.com 1.10,2013-07-14 20:12:00,
2013-07-14 13:27:00,84.1,36.0,29.95,ENE,57,0.0,3.0,18,0.00,,,0.00,weatherlink.com 1.10,2013-07-14 20:27:00,
2013-07-14 13:42:00,84.2,35.0,29.95,South,173,2.0,4.0,17,0.00,,,0.00,weatherlink.com 1.10,2013-07-14 20:42:00,
2013-07-14 13:57:00,84.7,30.0,29.94,WSW,258,0.0,5.0,14,0.00,,,0.00,weatherlink.com 1.10,2013-07-14 20:57:00,
2013-07-14 14:12:00,84.2,32.0,29.93,West,262,0.0,3.0,15,0.00,,,0.00,weatherlink.com 1.10,2013-07-14 21:12:00,
2013-07-14 14:27:00,83.8,40.0,29.92,East,94,1.0,5.0,21,0.00,,,0.00,weatherlink.com 1.10,2013-07-14 21:27:00,
2013-07-14 14:42:00,83.7,34.0,29.92,NE,50,0.0,7.0,17,0.00,,,0.00,weatherlink.com 1.10,2013-07-14 21:42:00,
2013-07-14 14:57:00,83.5,37.0,29.92,NNE,26,0.0,3.0,19,0.00,,,0.00,weatherlink.com 1.10,2013-07-14 21:57:00,
2013-07-14 15:12:00,83.8,35.0,29.92,SSE,151,1.0,6.0,17,0.00,,,0.00,weatherlink.com 1.10,2013-07-14 22:12:00,
2013-07-14 15:27:00,83.8,37.0,29.91,North,355,1.0,4.0,19,0.00,,,0.00,weatherlink.com 1.10,2013-07-14 22:27:00,
2013-07-14 15:42:00,83.6,34.0,29.91,SW,236,2.0,3.0,17,0.00,,,0.00,weatherlink.com 1.10,2013-07-14 22:42:00,
2013-07-14 15:57:00,82.6,38.0,29.90,NNW,347,2.0,6.0,20,0.00,,,0.00,weatherlink.com 1.10,2013-07-14 22:57:00,
2013-07-14 16:12:00,82.3,36.0,29.90,WSW,239,0.0,4.0,19,0.00,,,0.00,weatherlink.com 1.10,2013-07-14 23:12:00,
2013-07-14 16:27:00,82.6,36.0,29.89,NNE,29,1.0,6.0,19,0.00,,,0.00,weatherlink.com 1.10,2013-07-14 23:27:00,
2013-07-14 16:42:00,81.9,38.0,29.89,NNW,343,0.0,6.0,21,0.00,,,0.00,weatherlink.com 1.10,2013-07-14 23:42:00,
2013-07-14 16:57:00,80.7,37.0,29.88,North,350,3.0,7.0,21,0.00,,,0.00,weatherlink.com 1.10,2013-07-14 23:57:00,
2013-07-14 17:12:00,80.3,38.0,29.88,NNW,345,2.0,3.0,22,0.00,,,0.00,weatherlink.com 1.10,2013-07-15 00:12:00,
2013-07-14 17:27:00,79.6,39.0,29.88,NW,326,0.0,4.0,23,0.00,,,0.00,weatherlink.com 1.10,2013-07-15 00:27:00,
2013-07-14 17:42:00,78.9,38.0,29.88,North,11,1.0,6.0,23,0.00,,,0.00,weatherlink.com 1.10,2013-07-15 00:42:00,
2013-07-14 17:57:00,78.6,40.0,29.88,NNW,342,0.0,4.0,25,0.00,,,0.00,weatherlink.com 1.10,2013-07-15 00:57:00,
2013-07-14 18:12:00,77.6,38.0,29.88,WNW,298,0.0,3.0,24,0.00,,,0.00,weatherlink.com 1.10,2013-07-15 01:12:00,
2013-07-14 18:27:00,76.9,38.0,29.88,NNW,347,2.0,3.0,25,0.00,,,0.00,weatherlink.com 1.10,2013-07-15 01:27:00,
2013-07-14 18:42:00,76.0,40.0,29.88,NE,34,1.0,4.0,27,0.00,,,0.00,weatherlink.com 1.10,2013-07-15 01:42:00,
2013-07-14 18:57:00,75.2,39.0,29.88,NNE,13,0.0,5.0,27,0.00,,,0.00,weatherlink.com 1.10,2013-07-15 01:57:00,
2013-07-14 19:12:00,74.3,36.0,29.88,North,355,2.0,3.0,25,0.00,,,0.00,weatherlink.com 1.10,2013-07-15 02:12:00,
2013-07-14 19:27:00,73.7,37.0,29.88,WNW,288,1.0,5.0,26,0.00,,,0.00,weatherlink.com 1.10,2013-07-15 02:27:00,
2013-07-14 19:42:00,72.9,33.0,29.89,NNW,327,2.0,4.0,23,0.00,,,0.00,weatherlink.com 1.10,2013-07-15 02:42:00,
2013-07-14 19:57:00,71.9,34.0,29.89,WNW,303,0.0,2.0,25,0.00,,,0.00,weatherlink.com 1.10,2013-07-15 02:57:00,
2013-07-14 20:12:00,70.3,39.0,29.89,NW,308,0.0,1.0,32,0.00,,,0.00,weatherlink.com 1.10,2013-07-15 03:12:00,
2013-07-14 20:27:00,68.2,39.0,29.89,West,266,0.0,0.0,35,0.00,,,0.00,weatherlink.com 1.10,2013-07-15 03:27:00,
2013-07-14 20:42:00,66.3,38.0,29.89,SSW,192,0.0,0.0,36,0.00,,,0.00,weatherlink.com 1.10,2013-07-15 03:42:00,
2013-07-14 20:57:00,64.5,41.0,29.89,SSW,192,0.0,0.0,42,0.00,,,0.00,weatherlink.com 1.10,2013-07-15 03:57:00,
2013-07-14 21:12:00,62.9,41.0,29.89,South,190,0.0,0.0,45,0.00,,,0.00,weatherlink.com 1.10,2013-07-15 04:12:00,
2013-07-14 21:27:00,61.5,41.0,29.89,SE,141,0.0,0.0,48,0.00,,,0.00,weatherlink.com 1.10,2013-07-15 04:27:00,
2013-07-14 21:42:00,60.4,40.0,29.90,SE,141,0.0,0.0,48,0.00,,,0.00,weatherlink.com 1.10,2013-07-15 04:42:00,
2013-07-14 21:57:00,59.3,41.0,29.90,SE,141,0.0,0.0,51,0.00,,,0.00,weatherlink.com 1.10,2013-07-15 04:57:00,
2013-07-14 22:12:00,58.4,41.0,29.91,SE,142,0.0,0.0,52,0.00,,,0.00,weatherlink.com 1.10,2013-07-15 05:12:00,
2013-07-14 22:27:00,57.5,40.0,29.91,SE,142,0.0,0.0,53,0.00,,,0.00,weatherlink.com 1.10,2013-07-15 05:27:00,
2013-07-14 22:42:00,56.6,40.0,29.91,SE,141,0.0,0.0,54,0.00,,,0.00,weatherlink.com 1.10,2013-07-15 05:42:00,
2013-07-14 22:57:00,55.9,40.0,29.91,SE,142,0.0,0.0,55,0.00,,,0.00,weatherlink.com 1.10,2013-07-15 05:57:00,
2013-07-14 23:12:00,55.3,40.0,29.91,SE,132,0.0,0.0,57,0.00,,,0.00,weatherlink.com 1.10,2013-07-15 06:12:00,
2013-07-14 23:27:00,54.7,40.0,29.92,SE,132,0.0,0.0,58,0.00,,,0.00,weatherlink.com 1.10,2013-07-15 06:27:00,
2013-07-14 23:42:00,54.1,40.0,29.92,SE,132,0.0,0.0,59,0.00,,,0.00,weatherlink.com 1.10,2013-07-15 06:42:00,
2013-07-14 23:57:00,53.6,40.0,29.92,ENE,58,0.0,0.0,61,0.00,,,0.00,weatherlink.com 1.10,2013-07-15 06:57:00,